Time;durP1;ratioP1;P1;durP2;ratioP2;P2;SDS_P1;SDS_P2;PMS_P1;PMS_P2;Temp;Humidity;BMP_temperature;BMP_pressure;BME280_temperature;BME280_humidity;BME280_pressure;Samples;Min_cycle;Max_cycle;Signal;HPM_P1;HPM_P2
2022/09/01 00:00:51;;;;;;;65.40;7.30;;;;;;;;;;5073627;28;20453;-65
2022/09/01 00:03:22;;;;;;;62.70;7.30;;;;;;;;;;5073330;28;20468;-65
2022/09/01 00:05:53;;;;;;;63.50;7.03;;;;;;;;;;5073723;28;20454;-65
2022/09/01 00:08:21;;;;;;;63.60;7.50;;;;;;;;;;5073880;28;20461;-65
2022/09/01 00:10:48;;;;;;;62.57;7.20;;;;;;;;;;5073266;28;20456;-66
2022/09/01 00:13:15;;;;;;;67.03;6.93;;;;;;;;;;5073311;28;20834;-66
2022/09/01 00:15:42;;;;;;;62.37;5.87;;;;;;;;;;5073427;28;20447;-65
2022/09/01 00:18:10;;;;;;;62.50;6.27;;;;;;;;;;5073342;28;20443;-66
2022/09/01 00:20:38;;;;;;;65.13;6.53;;;;;;;;;;5073043;28;20449;-66
2022/09/01 00:23:05;;;;;;;63.20;6.73;;;;;;;;;;5073531;28;20465;-65
2022/09/01 00:25:33;;;;;;;63.80;7.03;;;;;;;;;;5073393;28;20858;-65
2022/09/01 00:28:03;;;;;;;62.00;6.60;;;;;;;;;;5073176;28;20479;-65
2022/09/01 00:30:31;;;;;;;63.40;7.20;;;;;;;;;;5073101;28;20456;-65
2022/09/01 00:32:58;;;;;;;63.40;7.10;;;;;;;;;;5073080;28;20523;-65
2022/09/01 00:35:25;;;;;;;62.20;5.90;;;;;;;;;;5072744;28;20491;-66
2022/09/01 00:37:53;;;;;;;62.57;6.70;;;;;;;;;;5073445;28;20447;-66
2022/09/01 00:40:20;;;;;;;64.70;7.00;;;;;;;;;;5073056;28;20794;-65
2022/09/01 00:42:48;;;;;;;63.03;6.70;;;;;;;;;;5072754;28;20468;-65
2022/09/01 00:45:15;;;;;;;63.70;6.60;;;;;;;;;;5072906;28;20473;-65
2022/09/01 00:47:43;;;;;;;67.43;7.07;;;;;;;;;;5072774;28;20451;-66
2022/09/01 00:50:11;;;;;;;62.57;6.20;;;;;;;;;;5072366;28;20451;-65
2022/09/01 00:52:40;;;;;;;61.40;5.60;;;;;;;;;;5072839;28;20463;-65
2022/09/01 00:55:10;;;;;;;63.00;6.40;;;;;;;;;;5072823;28;20502;-66
2022/09/01 00:57:38;;;;;;;65.77;7.63;;;;;;;;;;5072663;28;20830;-65
2022/09/01 01:00:08;;;;;;;62.67;6.40;;;;;;;;;;5072328;28;20452;-65
2022/09/01 01:02:37;;;;;;;64.57;7.87;;;;;;;;;;5072304;28;20470;-66
2022/09/01 01:05:05;;;;;;;63.67;7.47;;;;;;;;;;5072324;28;20483;-65
2022/09/01 01:07:41;;;;;;;68.57;7.70;;;;;;;;;;5072508;28;20458;-65
2022/09/01 01:10:11;;;;;;;65.30;7.17;;;;;;;;;;5072215;28;20868;-65
2022/09/01 01:12:39;;;;;;;65.23;8.30;;;;;;;;;;5072273;28;20987;-65
2022/09/01 01:15:07;;;;;;;65.63;7.17;;;;;;;;;;5071690;28;20444;-66
2022/09/01 01:17:35;;;;;;;63.40;7.33;;;;;;;;;;5072375;28;20504;-65
2022/09/01 01:23:04;;;;;;;65.77;7.20;;;;;;;;;;5072163;28;20451;-65
2022/09/01 01:25:34;;;;;;;62.27;6.20;;;;;;;;;;5072133;28;20493;-66
2022/09/01 01:28:06;;;;;;;65.37;8.40;;;;;;;;;;5072100;28;20451;-65
2022/09/01 01:30:35;;;;;;;62.70;5.77;;;;;;;;;;5071983;28;20906;-65
2022/09/01 01:33:03;;;;;;;62.70;6.53;;;;;;;;;;5071947;28;20506;-65
2022/09/01 01:35:32;;;;;;;63.77;7.30;;;;;;;;;;5072156;28;20452;-66
2022/09/01 01:38:00;;;;;;;67.63;6.70;;;;;;;;;;5071846;28;20960;-65
2022/09/01 01:40:28;;;;;;;71.63;6.73;;;;;;;;;;5071947;28;20465;-66
2022/09/01 01:42:59;;;;;;;63.80;7.40;;;;;;;;;;5072150;28;20467;-65
2022/09/01 01:45:27;;;;;;;64.70;7.33;;;;;;;;;;5070377;28;20853;-66
2022/09/01 01:47:55;;;;;;;63.17;6.50;;;;;;;;;;5072048;28;20452;-66
2022/09/01 01:50:22;;;;;;;64.07;7.20;;;;;;;;;;5071741;28;20457;-66
2022/09/01 01:52:49;;;;;;;63.80;7.43;;;;;;;;;;5071858;28;20469;-66
2022/09/01 01:55:18;;;;;;;66.23;8.73;;;;;;;;;;5071785;28;20877;-66
2022/09/01 01:57:48;;;;;;;63.60;7.00;;;;;;;;;;5071646;28;21021;-65
2022/09/01 02:00:19;;;;;;;63.07;7.13;;;;;;;;;;5071404;28;20929;-65
2022/09/01 02:02:51;;;;;;;63.70;7.63;;;;;;;;;;5071823;28;20482;-65
2022/09/01 02:05:23;;;;;;;63.13;6.40;;;;;;;;;;5071647;28;20482;-65
2022/09/01 02:07:50;;;;;;;64.20;6.70;;;;;;;;;;5071732;28;20458;-66
2022/09/01 02:10:17;;;;;;;62.87;5.73;;;;;;;;;;5071327;28;20453;-66
2022/09/01 02:12:45;;;;;;;63.80;7.40;;;;;;;;;;5071531;28;20831;-66
2022/09/01 02:15:12;;;;;;;63.70;7.03;;;;;;;;;;5071602;28;20443;-66
2022/09/01 02:17:43;;;;;;;63.77;6.70;;;;;;;;;;5071978;28;20501;-66
2022/09/01 02:20:11;;;;;;;62.13;6.47;;;;;;;;;;5071282;28;20456;-66
2022/09/01 02:22:38;;;;;;;65.03;6.70;;;;;;;;;;5071364;28;21017;-66
2022/09/01 02:25:06;;;;;;;62.97;7.07;;;;;;;;;;5071308;28;20549;-65
2022/09/01 02:27:34;;;;;;;62.90;6.50;;;;;;;;;;5074345;28;20451;-65
2022/09/01 02:30:01;;;;;;;62.70;6.60;;;;;;;;;;5075096;28;20547;-65
2022/09/01 02:32:28;;;;;;;63.83;6.37;;;;;;;;;;5075435;28;20463;-65
2022/09/01 02:35:00;;;;;;;63.20;6.27;;;;;;;;;;5075317;28;20927;-65
2022/09/01 02:37:28;;;;;;;63.97;6.83;;;;;;;;;;5075113;28;20526;-65
2022/09/01 02:39:56;;;;;;;64.63;8.10;;;;;;;;;;5074935;28;20940;-66
2022/09/01 02:42:26;;;;;;;66.33;7.40;;;;;;;;;;5075141;28;20479;-66
2022/09/01 02:44:53;;;;;;;65.80;7.03;;;;;;;;;;5075230;28;20483;-65
2022/09/01 02:47:22;;;;;;;67.17;7.90;;;;;;;;;;5075243;28;20481;-65
2022/09/01 02:49:49;;;;;;;64.00;6.77;;;;;;;;;;5074806;28;20451;-66
2022/09/01 02:52:19;;;;;;;62.10;5.60;;;;;;;;;;5074806;28;20474;-66
2022/09/01 02:54:49;;;;;;;63.23;7.00;;;;;;;;;;5075164;28;20546;-66
2022/09/01 02:57:17;;;;;;;64.10;7.30;;;;;;;;;;5075109;28;20455;-65
2022/09/01 02:59:46;;;;;;;63.13;7.23;;;;;;;;;;5074579;28;20548;-65
2022/09/01 03:02:13;;;;;;;63.27;6.73;;;;;;;;;;5074913;28;20502;-66
2022/09/01 03:04:40;;;;;;;62.87;7.00;;;;;;;;;;5074626;28;20479;-65
2022/09/01 03:07:07;;;;;;;63.93;7.23;;;;;;;;;;5074741;28;20458;-65
2022/09/01 03:09:37;;;;;;;64.77;7.33;;;;;;;;;;5074543;28;20461;-65
2022/09/01 03:12:05;;;;;;;65.40;7.10;;;;;;;;;;5074939;28;20827;-65
2022/09/01 03:14:33;;;;;;;63.30;6.53;;;;;;;;;;5074697;28;20497;-65
2022/09/01 03:17:00;;;;;;;62.50;6.77;;;;;;;;;;5074547;28;20744;-65
2022/09/01 03:19:43;;;;;;;64.00;6.40;;;;;;;;;;5074507;28;20470;-65
2022/09/01 03:22:10;;;;;;;63.27;6.87;;;;;;;;;;5074660;28;20836;-65
2022/09/01 03:24:39;;;;;;;63.80;7.43;;;;;;;;;;5074444;28;20486;-66
2022/09/01 03:27:06;;;;;;;65.13;8.53;;;;;;;;;;5074441;28;20793;-66
2022/09/01 03:29:33;;;;;;;63.33;7.40;;;;;;;;;;5074449;28;20452;-65
2022/09/01 03:32:00;;;;;;;66.00;7.90;;;;;;;;;;5074218;28;20952;-65
2022/09/01 03:34:28;;;;;;;64.77;7.00;;;;;;;;;;5074407;28;20532;-65
2022/09/01 03:36:55;;;;;;;65.87;8.00;;;;;;;;;;5074119;28;20851;-65
2022/09/01 03:39:22;;;;;;;64.20;7.03;;;;;;;;;;5072815;28;20447;-65
2022/09/01 03:41:50;;;;;;;64.93;8.93;;;;;;;;;;5074014;28;20450;-65
2022/09/01 03:44:17;;;;;;;64.60;8.20;;;;;;;;;;5074012;28;20447;-66
2022/09/01 03:46:45;;;;;;;64.67;7.10;;;;;;;;;;5074185;28;20526;-65
2022/09/01 03:49:23;;;;;;;64.67;7.97;;;;;;;;;;5073911;28;20444;-65
2022/09/01 03:51:52;;;;;;;64.70;7.70;;;;;;;;;;5074002;28;20543;-65
2022/09/01 03:54:23;;;;;;;65.77;8.13;;;;;;;;;;5073955;28;20892;-65
2022/09/01 03:56:53;;;;;;;62.10;6.10;;;;;;;;;;5073835;28;20455;-65
2022/09/01 03:59:21;;;;;;;63.03;7.07;;;;;;;;;;5073712;28;20451;-66
2022/09/01 04:01:48;;;;;;;63.90;7.27;;;;;;;;;;5074080;28;20504;-66
2022/09/01 04:04:15;;;;;;;62.90;6.90;;;;;;;;;;5073605;28;20453;-65
2022/09/01 04:06:43;;;;;;;63.10;7.10;;;;;;;;;;5073769;28;20840;-65
2022/09/01 04:09:11;;;;;;;67.57;7.47;;;;;;;;;;5073198;28;20440;-65
2022/09/01 04:11:39;;;;;;;64.87;8.07;;;;;;;;;;5073739;28;20462;-66
2022/09/01 04:14:08;;;;;;;68.40;8.10;;;;;;;;;;5073447;28;20471;-65
2022/09/01 04:19:24;;;;;;;63.70;7.00;;;;;;;;;;5073110;28;20419;-66
2022/09/01 04:21:53;;;;;;;65.97;7.43;;;;;;;;;;5073298;28;20455;-65
2022/09/01 04:24:22;;;;;;;64.57;7.57;;;;;;;;;;5073343;28;20726;-65
2022/09/01 04:26:50;;;;;;;65.10;8.87;;;;;;;;;;5073445;28;20443;-65
2022/09/01 04:29:23;;;;;;;64.00;7.63;;;;;;;;;;5073006;28;20443;-65
2022/09/01 04:31:52;;;;;;;65.20;8.97;;;;;;;;;;5073155;28;20447;-66
2022/09/01 04:34:19;;;;;;;65.63;7.67;;;;;;;;;;5072945;28;20549;-66
2022/09/01 04:36:47;;;;;;;66.73;8.03;;;;;;;;;;5072957;28;20833;-65
2022/09/01 04:39:14;;;;;;;62.73;7.07;;;;;;;;;;5072644;28;20490;-66
2022/09/01 04:41:44;;;;;;;65.83;8.07;;;;;;;;;;5073001;28;20955;-66
2022/09/01 04:44:12;;;;;;;65.80;8.40;;;;;;;;;;5072780;28;20482;-66
2022/09/01 04:46:45;;;;;;;62.57;6.90;;;;;;;;;;5072574;28;20487;-66
2022/09/01 04:49:18;;;;;;;62.50;7.37;;;;;;;;;;5072572;28;20459;-65
2022/09/01 04:51:46;;;;;;;65.80;8.60;;;;;;;;;;5072935;28;20474;-66
2022/09/01 04:54:15;;;;;;;63.10;7.47;;;;;;;;;;5073042;28;20837;-66
2022/09/01 04:56:43;;;;;;;68.00;9.10;;;;;;;;;;5072706;28;20443;-65
2022/09/01 04:59:10;;;;;;;63.20;7.10;;;;;;;;;;5072229;28;20455;-66
2022/09/01 05:01:42;;;;;;;66.90;8.40;;;;;;;;;;5072711;28;20456;-65
2022/09/01 05:04:11;;;;;;;65.50;7.67;;;;;;;;;;5072574;28;20882;-66
2022/09/01 05:06:41;;;;;;;68.57;8.93;;;;;;;;;;5072429;28;20488;-65
2022/09/01 05:09:09;;;;;;;66.40;9.73;;;;;;;;;;5072112;28;20452;-66
2022/09/01 05:11:37;;;;;;;67.00;7.30;;;;;;;;;;5072345;28;20501;-66
2022/09/01 05:14:05;;;;;;;63.87;8.27;;;;;;;;;;5072183;28;20459;-66
2022/09/01 05:16:34;;;;;;;64.80;9.60;;;;;;;;;;5072254;28;20479;-65
2022/09/01 05:19:01;;;;;;;64.47;7.73;;;;;;;;;;5072007;28;20936;-65
2022/09/01 05:21:30;;;;;;;66.83;8.40;;;;;;;;;;5072282;28;20447;-65
2022/09/01 05:23:59;;;;;;;68.17;8.10;;;;;;;;;;5072045;28;20478;-65
2022/09/01 05:26:28;;;;;;;65.60;8.50;;;;;;;;;;5071960;28;21137;-65
2022/09/01 05:28:57;;;;;;;64.90;8.30;;;;;;;;;;5072068;28;20455;-65
2022/09/01 05:31:26;;;;;;;66.00;8.80;;;;;;;;;;5071999;28;20493;-65
2022/09/01 05:33:56;;;;;;;64.93;7.97;;;;;;;;;;5071891;28;20464;-66
2022/09/01 05:36:25;;;;;;;64.13;7.67;;;;;;;;;;5070897;28;20458;-66
2022/09/01 05:38:54;;;;;;;64.77;7.80;;;;;;;;;;5071702;28;20451;-66
2022/09/01 05:41:22;;;;;;;63.40;7.00;;;;;;;;;;5071903;28;20530;-66
2022/09/01 05:43:51;;;;;;;62.13;6.93;;;;;;;;;;5071853;28;20992;-65
2022/09/01 05:46:19;;;;;;;67.00;6.80;;;;;;;;;;5071908;28;20908;-66
2022/09/01 05:48:48;;;;;;;62.10;6.13;;;;;;;;;;5071896;28;20558;-65
2022/09/01 05:51:16;;;;;;;63.53;7.80;;;;;;;;;;5071813;28;20461;-65
2022/09/01 05:53:45;;;;;;;65.10;7.63;;;;;;;;;;5072038;28;20487;-66
2022/09/01 05:56:13;;;;;;;65.40;8.47;;;;;;;;;;5071881;28;20471;-65
2022/09/01 05:58:46;;;;;;;65.37;7.63;;;;;;;;;;5071558;28;20487;-66
2022/09/01 06:01:20;;;;;;;65.17;10.73;;;;;;;;;;5071281;28;20848;-65
2022/09/01 06:03:48;;;;;;;63.50;6.43;;;;;;;;;;5071574;28;20475;-65
2022/09/01 06:06:16;;;;;;;64.13;7.60;;;;;;;;;;5071798;28;20482;-65
2022/09/01 06:08:44;;;;;;;65.87;8.03;;;;;;;;;;5071661;28;20811;-66
2022/09/01 06:11:15;;;;;;;64.47;7.87;;;;;;;;;;5071957;28;20587;-65
2022/09/01 06:13:45;;;;;;;68.90;8.50;;;;;;;;;;5071640;28;20468;-66
2022/09/01 06:16:14;;;;;;;65.23;7.20;;;;;;;;;;5072105;28;20807;-65
2022/09/01 06:18:42;;;;;;;66.47;7.47;;;;;;;;;;5071560;28;20839;-65
2022/09/01 06:21:13;;;;;;;64.07;8.20;;;;;;;;;;5071579;28;20457;-66
2022/09/01 06:23:40;;;;;;;63.07;6.60;;;;;;;;;;5071525;28;20557;-65
2022/09/01 06:26:08;;;;;;;64.23;7.80;;;;;;;;;;5071415;28;20483;-66
2022/09/01 06:28:39;;;;;;;67.70;10.07;;;;;;;;;;5071209;28;20545;-66
2022/09/01 06:31:08;;;;;;;64.27;8.10;;;;;;;;;;5071674;28;20459;-65
2022/09/01 06:33:35;;;;;;;65.60;8.30;;;;;;;;;;5071133;28;20466;-65
2022/09/01 06:36:04;;;;;;;69.97;8.33;;;;;;;;;;5068916;28;20458;-67
2022/09/01 06:38:31;;;;;;;64.40;8.00;;;;;;;;;;5070936;28;20969;-66
2022/09/01 06:41:03;;;;;;;63.20;7.77;;;;;;;;;;5069514;28;20954;-66
2022/09/01 06:43:30;;;;;;;64.70;7.97;;;;;;;;;;5070563;28;20564;-66
2022/09/01 06:45:58;;;;;;;63.10;6.20;;;;;;;;;;5071115;28;20483;-66
2022/09/01 06:48:29;;;;;;;68.63;9.30;;;;;;;;;;5070595;28;20943;-66
2022/09/01 06:51:02;;;;;;;64.97;7.43;;;;;;;;;;5069948;28;20455;-66
2022/09/01 06:53:29;;;;;;;63.20;6.90;;;;;;;;;;5069523;28;20510;-66
2022/09/01 06:55:57;;;;;;;64.67;8.20;;;;;;;;;;5069805;28;20537;-66
2022/09/01 06:58:24;;;;;;;64.73;7.20;;;;;;;;;;5070471;28;20449;-66
2022/09/01 07:00:51;;;;;;;66.10;8.30;;;;;;;;;;5070494;28;20450;-66
2022/09/01 07:03:18;;;;;;;64.43;7.07;;;;;;;;;;5070974;28;20482;-66
2022/09/01 07:05:48;;;;;;;64.90;7.30;;;;;;;;;;5070946;28;20490;-66
2022/09/01 07:08:18;;;;;;;64.10;7.97;;;;;;;;;;5070754;28;20574;-66
2022/09/01 07:10:46;;;;;;;64.37;7.63;;;;;;;;;;5070681;28;21021;-66
2022/09/01 07:13:18;;;;;;;65.50;7.63;;;;;;;;;;5068974;28;20479;-66
2022/09/01 07:15:48;;;;;;;63.70;7.23;;;;;;;;;;5074691;28;20447;-66
2022/09/01 07:18:16;;;;;;;63.30;8.50;;;;;;;;;;5074269;28;20470;-66
2022/09/01 07:20:45;;;;;;;62.67;6.97;;;;;;;;;;5073878;28;20462;-66
2022/09/01 07:23:16;;;;;;;63.43;6.80;;;;;;;;;;5074455;28;20463;-66
2022/09/01 07:25:44;;;;;;;67.30;7.10;;;;;;;;;;5074439;28;20482;-66
2022/09/01 07:28:12;;;;;;;63.50;6.73;;;;;;;;;;5074220;28;20917;-66
2022/09/01 07:30:41;;;;;;;63.77;6.70;;;;;;;;;;5073901;28;20451;-66
2022/09/01 07:33:10;;;;;;;62.30;5.97;;;;;;;;;;5074293;28;20486;-66
2022/09/01 07:35:38;;;;;;;64.90;7.60;;;;;;;;;;5073871;28;20462;-66
2022/09/01 07:38:06;;;;;;;63.63;6.50;;;;;;;;;;5073995;28;20838;-66
2022/09/01 07:40:36;;;;;;;62.40;6.07;;;;;;;;;;5073552;28;20512;-67
2022/09/01 07:43:07;;;;;;;62.03;5.57;;;;;;;;;;5073311;28;20474;-67
2022/09/01 07:45:35;;;;;;;60.90;5.50;;;;;;;;;;5071827;28;20549;-67
2022/09/01 07:48:05;;;;;;;63.77;6.33;;;;;;;;;;5073278;28;20876;-66
2022/09/01 07:50:32;;;;;;;61.43;6.00;;;;;;;;;;5073775;28;20490;-66
2022/09/01 07:53:00;;;;;;;61.50;5.77;;;;;;;;;;5073548;28;20467;-65
2022/09/01 07:55:27;;;;;;;62.37;6.30;;;;;;;;;;5074127;28;20450;-66
2022/09/01 07:57:56;;;;;;;60.80;5.57;;;;;;;;;;5073724;28;20454;-65
2022/09/01 08:00:23;;;;;;;60.47;5.10;;;;;;;;;;5073511;28;20481;-66
2022/09/01 08:02:51;;;;;;;60.20;4.80;;;;;;;;;;5070587;28;20476;-66
2022/09/01 08:05:21;;;;;;;62.10;6.20;;;;;;;;;;5073539;28;20450;-66
2022/09/01 08:07:48;;;;;;;60.83;6.10;;;;;;;;;;5073471;28;20483;-66
2022/09/01 08:10:16;;;;;;;60.93;5.00;;;;;;;;;;5073075;28;20590;-66
2022/09/01 08:12:43;;;;;;;62.23;5.63;;;;;;;;;;5073177;28;21018;-66
2022/09/01 08:15:12;;;;;;;60.07;4.23;;;;;;;;;;5072954;28;20461;-66
2022/09/01 08:17:40;;;;;;;60.40;4.80;;;;;;;;;;5073371;28;20833;-66
2022/09/01 08:20:08;;;;;;;61.97;6.30;;;;;;;;;;5072998;28;20800;-66
2022/09/01 08:22:36;;;;;;;60.57;4.90;;;;;;;;;;5072769;28;20474;-66
2022/09/01 08:25:05;;;;;;;60.57;4.40;;;;;;;;;;5072651;28;20451;-66
2022/09/01 08:27:35;;;;;;;60.77;4.57;;;;;;;;;;5072683;28;20994;-66
2022/09/01 08:30:02;;;;;;;59.70;4.77;;;;;;;;;;5072789;28;20447;-66
2022/09/01 08:32:31;;;;;;;63.00;5.47;;;;;;;;;;5072184;28;20497;-66
2022/09/01 08:34:58;;;;;;;61.30;4.73;;;;;;;;;;5070379;28;20455;-65
2022/09/01 08:37:25;;;;;;;59.03;4.10;;;;;;;;;;5074590;28;20546;-65
2022/09/01 08:39:52;;;;;;;60.30;4.30;;;;;;;;;;5075160;28;20940;-66
2022/09/01 08:42:25;;;;;;;60.00;5.23;;;;;;;;;;5075792;28;20478;-66
2022/09/01 08:44:56;;;;;;;60.70;5.13;;;;;;;;;;5076594;28;20443;-66
2022/09/01 08:47:23;;;;;;;59.17;4.03;;;;;;;;;;5076173;28;20489;-65
2022/09/01 08:49:52;;;;;;;59.93;4.00;;;;;;;;;;5076560;28;20451;-66
2022/09/01 08:52:22;;;;;;;59.30;3.60;;;;;;;;;;5076041;28;20463;-66
2022/09/01 08:54:50;;;;;;;59.67;4.67;;;;;;;;;;5075790;28;20455;-65
2022/09/01 08:57:20;;;;;;;58.70;3.53;;;;;;;;;;5076301;28;20507;-65
2022/09/01 08:59:47;;;;;;;59.23;3.77;;;;;;;;;;5076221;28;20451;-66
2022/09/01 09:02:21;;;;;;;60.67;3.57;;;;;;;;;;5076004;28;20475;-65
2022/09/01 09:04:54;;;;;;;59.50;4.17;;;;;;;;;;5076079;28;20462;-65
2022/09/01 09:07:29;;;;;;;60.10;3.90;;;;;;;;;;5075570;28;20634;-65
2022/09/01 09:09:58;;;;;;;59.87;3.93;;;;;;;;;;5074399;28;20440;-65
2022/09/01 09:12:32;;;;;;;58.87;3.17;;;;;;;;;;5075642;28;20474;-66
2022/09/01 09:15:07;;;;;;;60.60;3.70;;;;;;;;;;5075848;28;20482;-65
2022/09/01 09:17:35;;;;;;;59.30;3.93;;;;;;;;;;5075412;28;20450;-65
2022/09/01 09:20:03;;;;;;;59.10;3.87;;;;;;;;;;5076019;28;20458;-65
2022/09/01 09:22:33;;;;;;;58.40;3.20;;;;;;;;;;5075268;28;20499;-65
2022/09/01 09:25:03;;;;;;;59.83;3.67;;;;;;;;;;5075280;28;20511;-65
2022/09/01 09:27:31;;;;;;;59.70;4.50;;;;;;;;;;5075011;28;21242;-66
2022/09/01 09:29:59;;;;;;;60.20;3.80;;;;;;;;;;5075408;28;21214;-65
2022/09/01 09:32:43;;;;;;;61.57;3.70;;;;;;;;;;5074986;28;20521;-66
2022/09/01 09:35:19;;;;;;;58.83;3.33;;;;;;;;;;5075201;28;20436;-66
2022/09/01 09:37:47;;;;;;;59.20;3.23;;;;;;;;;;5074730;28;20442;-65
2022/09/01 09:40:15;;;;;;;59.20;3.20;;;;;;;;;;5074419;28;20534;-66
2022/09/01 09:42:43;;;;;;;58.80;3.20;;;;;;;;;;5073045;28;20489;-65
2022/09/01 09:45:22;;;;;;;59.17;3.70;;;;;;;;;;5074448;28;21012;-65
2022/09/01 09:47:49;;;;;;;59.50;3.57;;;;;;;;;;5074793;28;20482;-65
2022/09/01 09:50:22;;;;;;;58.50;3.27;;;;;;;;;;5074161;28;20813;-65
2022/09/01 09:52:52;;;;;;;59.10;3.60;;;;;;;;;;5074065;28;20490;-65
2022/09/01 09:55:22;;;;;;;58.90;3.23;;;;;;;;;;5072465;28;20457;-66
2022/09/01 09:57:50;;;;;;;58.57;3.03;;;;;;;;;;5073419;28;20479;-65
2022/09/01 10:00:20;;;;;;;59.83;3.83;;;;;;;;;;5073324;28;20448;-66
2022/09/01 10:02:53;;;;;;;58.77;3.57;;;;;;;;;;5073602;28;20558;-65
2022/09/01 10:05:34;;;;;;;60.00;4.40;;;;;;;;;;5073735;28;20454;-66
2022/09/01 10:08:03;;;;;;;60.10;3.80;;;;;;;;;;5073208;28;20483;-66
2022/09/01 10:10:31;;;;;;;60.00;3.57;;;;;;;;;;5072702;28;20443;-65
2022/09/01 10:13:00;;;;;;;58.63;3.43;;;;;;;;;;5072111;28;20471;-66
2022/09/01 10:15:30;;;;;;;58.77;3.53;;;;;;;;;;5073239;28;20458;-66
2022/09/01 10:18:01;;;;;;;58.80;2.90;;;;;;;;;;5072765;28;20445;-66
2022/09/01 10:20:28;;;;;;;59.17;3.70;;;;;;;;;;5073463;28;20447;-65
2022/09/01 10:22:56;;;;;;;58.87;3.07;;;;;;;;;;5073281;28;20471;-66
2022/09/01 10:25:26;;;;;;;58.80;3.23;;;;;;;;;;5073028;28;20451;-66
2022/09/01 10:27:56;;;;;;;59.10;3.70;;;;;;;;;;5073361;28;20479;-66
2022/09/01 10:30:24;;;;;;;59.60;4.00;;;;;;;;;;5073547;28;20451;-66
2022/09/01 10:32:52;;;;;;;58.50;3.50;;;;;;;;;;5073890;28;20461;-65
2022/09/01 10:35:22;;;;;;;59.30;3.90;;;;;;;;;;5073040;28;20458;-66
2022/09/01 10:37:51;;;;;;;58.60;3.20;;;;;;;;;;5074242;28;20447;-66
2022/09/01 10:40:21;;;;;;;59.03;3.93;;;;;;;;;;5073432;28;20935;-66
2022/09/01 10:42:54;;;;;;;58.70;3.20;;;;;;;;;;5072356;28;20557;-65
2022/09/01 10:45:31;;;;;;;64.07;4.17;;;;;;;;;;5071783;28;20856;-65
2022/09/01 10:47:58;;;;;;;58.40;2.90;;;;;;;;;;5074565;28;20871;-66
2022/09/01 10:50:27;;;;;;;58.70;3.00;;;;;;;;;;5077254;28;20449;-65
2022/09/01 10:52:59;;;;;;;59.53;3.03;;;;;;;;;;5077383;28;20475;-67
2022/09/01 10:55:29;;;;;;;58.10;3.60;;;;;;;;;;5076947;28;20541;-66
2022/09/01 10:58:07;;;;;;;58.60;2.80;;;;;;;;;;5078668;28;20799;-66
2022/09/01 11:00:45;;;;;;;58.23;2.70;;;;;;;;;;5078804;28;20455;-66
2022/09/01 11:03:30;;;;;;;58.47;2.77;;;;;;;;;;5078719;28;20821;-66
2022/09/01 11:06:01;;;;;;;58.53;3.30;;;;;;;;;;5077553;28;20443;-66
2022/09/01 11:08:42;;;;;;;57.80;2.80;;;;;;;;;;5077722;28;20839;-65
2022/09/01 11:11:13;;;;;;;59.10;3.13;;;;;;;;;;5077609;28;20458;-66
2022/09/01 11:13:47;;;;;;;57.87;2.73;;;;;;;;;;5077958;28;20471;-66
2022/09/01 11:16:35;;;;;;;58.77;2.70;;;;;;;;;;5077447;28;20445;-66
2022/09/01 11:19:25;;;;;;;58.30;3.27;;;;;;;;;;5072544;28;20805;-66
2022/09/01 11:22:04;;;;;;;58.37;3.03;;;;;;;;;;5077631;28;20453;-67
2022/09/01 11:24:49;;;;;;;58.30;3.07;;;;;;;;;;5077765;28;20463;-66
2022/09/01 11:27:31;;;;;;;58.10;2.90;;;;;;;;;;5077501;28;20841;-64
2022/09/01 11:30:02;;;;;;;58.03;2.90;;;;;;;;;;5076675;28;20443;-64
2022/09/01 11:32:33;;;;;;;58.77;3.00;;;;;;;;;;5077331;28;20506;-66
2022/09/01 11:35:01;;;;;;;58.20;2.80;;;;;;;;;;5076399;28;20428;-66
2022/09/01 11:37:29;;;;;;;57.90;3.00;;;;;;;;;;5076568;28;20439;-66
2022/09/01 11:39:58;;;;;;;58.27;3.30;;;;;;;;;;5075745;28;20451;-66
2022/09/01 11:42:28;;;;;;;57.97;2.90;;;;;;;;;;5076680;28;20603;-66
2022/09/01 11:44:57;;;;;;;57.60;2.53;;;;;;;;;;5077319;28;20455;-66
2022/09/01 11:47:28;;;;;;;57.70;2.73;;;;;;;;;;5077446;28;20483;-66
2022/09/01 11:49:57;;;;;;;57.77;2.80;;;;;;;;;;5077467;28;20458;-66
2022/09/01 11:52:26;;;;;;;57.97;2.70;;;;;;;;;;5075592;28;20566;-66
2022/09/01 11:54:54;;;;;;;57.77;2.80;;;;;;;;;;5076104;28;20443;-66
2022/09/01 11:57:31;;;;;;;57.57;2.43;;;;;;;;;;5077126;28;20470;-66
2022/09/01 12:00:00;;;;;;;57.57;2.60;;;;;;;;;;5075602;28;20445;-67
2022/09/01 12:02:30;;;;;;;57.43;2.30;;;;;;;;;;5069507;28;20481;-65
2022/09/01 12:04:58;;;;;;;57.90;2.50;;;;;;;;;;5072786;28;21003;-66
2022/09/01 12:07:27;;;;;;;57.37;2.80;;;;;;;;;;5071343;28;20483;-66
2022/09/01 12:09:54;;;;;;;57.80;2.90;;;;;;;;;;5073060;28;20447;-66
2022/09/01 12:12:29;;;;;;;58.17;3.00;;;;;;;;;;5073204;28;20471;-66
2022/09/01 12:14:57;;;;;;;57.20;2.20;;;;;;;;;;5073300;28;21010;-66
2022/09/01 12:17:25;;;;;;;58.17;3.00;;;;;;;;;;5073379;28;20443;-66
2022/09/01 12:19:54;;;;;;;58.20;2.77;;;;;;;;;;5072926;28;20962;-66
2022/09/01 12:22:21;;;;;;;60.77;2.93;;;;;;;;;;5072760;28;20544;-66
2022/09/01 12:24:50;;;;;;;58.10;3.20;;;;;;;;;;5073164;28;20446;-66
2022/09/01 12:27:17;;;;;;;58.20;3.10;;;;;;;;;;5072585;28;21021;-66
2022/09/01 12:29:44;;;;;;;58.20;3.00;;;;;;;;;;5072682;28;20450;-66
2022/09/01 12:32:12;;;;;;;57.57;2.60;;;;;;;;;;5072842;28;20992;-66
2022/09/01 12:34:41;;;;;;;58.27;3.23;;;;;;;;;;5073411;28;20443;-66
2022/09/01 12:37:11;;;;;;;58.37;3.20;;;;;;;;;;5072241;28;20491;-66
2022/09/01 12:39:39;;;;;;;58.00;3.20;;;;;;;;;;5071517;28;20823;-66
2022/09/01 12:42:24;;;;;;;57.80;2.47;;;;;;;;;;5072495;28;20455;-66
2022/09/01 12:44:52;;;;;;;57.90;2.80;;;;;;;;;;5072894;28;20487;-66
2022/09/01 12:47:39;;;;;;;58.23;3.30;;;;;;;;;;5072617;28;20565;-66
2022/09/01 12:50:07;;;;;;;58.37;3.23;;;;;;;;;;5072166;28;20451;-66
2022/09/01 12:52:36;;;;;;;57.63;2.73;;;;;;;;;;5072621;28;20550;-66
2022/09/01 12:55:14;;;;;;;58.00;3.20;;;;;;;;;;5072652;28;20534;-66
2022/09/01 12:57:48;;;;;;;58.13;3.33;;;;;;;;;;5072544;28;20449;-64
2022/09/01 13:00:18;;;;;;;58.43;3.07;;;;;;;;;;5072636;28;20464;-64
2022/09/01 13:02:46;;;;;;;57.60;2.67;;;;;;;;;;5071955;28;20482;-64
2022/09/01 13:05:20;;;;;;;57.60;2.60;;;;;;;;;;5071990;28;20534;-64
2022/09/01 13:07:49;;;;;;;58.70;3.57;;;;;;;;;;5071582;28;20479;-64
2022/09/01 13:10:16;;;;;;;57.90;2.80;;;;;;;;;;5070077;28;20451;-64
2022/09/01 13:12:44;;;;;;;57.70;2.87;;;;;;;;;;5071980;28;20555;-64
2022/09/01 13:15:12;;;;;;;57.30;2.60;;;;;;;;;;5072002;28;20454;-64
2022/09/01 13:17:39;;;;;;;57.30;2.40;;;;;;;;;;5072338;28;20448;-64
2022/09/01 13:20:07;;;;;;;59.97;3.70;;;;;;;;;;5071857;28;20545;-64
2022/09/01 13:22:34;;;;;;;57.80;2.93;;;;;;;;;;5071539;28;20482;-64
2022/09/01 13:25:03;;;;;;;57.47;2.70;;;;;;;;;;5072005;28;20447;-64
2022/09/01 13:27:30;;;;;;;57.90;2.60;;;;;;;;;;5071500;28;20443;-64
2022/09/01 13:29:57;;;;;;;57.90;2.50;;;;;;;;;;5071781;28;20464;-64
2022/09/01 13:32:25;;;;;;;57.60;2.60;;;;;;;;;;5071739;28;20469;-64
2022/09/01 13:34:53;;;;;;;57.67;2.80;;;;;;;;;;5071960;28;20473;-64
2022/09/01 13:37:20;;;;;;;57.40;2.53;;;;;;;;;;5071792;28;20470;-64
2022/09/01 13:39:47;;;;;;;57.33;2.40;;;;;;;;;;5071462;28;20841;-64
2022/09/01 13:42:17;;;;;;;58.07;2.80;;;;;;;;;;5069717;28;20503;-64
2022/09/01 13:44:45;;;;;;;57.77;2.73;;;;;;;;;;5071864;28;20538;-64
2022/09/01 13:47:13;;;;;;;57.93;2.47;;;;;;;;;;5071466;28;20543;-64
2022/09/01 13:49:40;;;;;;;57.57;2.33;;;;;;;;;;5071425;28;20578;-64
2022/09/01 13:52:07;;;;;;;59.90;2.30;;;;;;;;;;5071495;28;20458;-64
2022/09/01 13:54:34;;;;;;;59.87;2.80;;;;;;;;;;5071441;28;20884;-64
2022/09/01 13:57:01;;;;;;;57.50;2.67;;;;;;;;;;5071573;28;21027;-64
2022/09/01 13:59:31;;;;;;;57.47;2.40;;;;;;;;;;5071134;28;20444;-64
2022/09/01 14:01:58;;;;;;;57.20;2.40;;;;;;;;;;5071070;28;20963;-64
2022/09/01 14:04:25;;;;;;;57.60;2.53;;;;;;;;;;5071555;28;20450;-64
2022/09/01 14:06:52;;;;;;;57.80;2.73;;;;;;;;;;5071309;28;20451;-64
2022/09/01 14:09:19;;;;;;;58.07;2.60;;;;;;;;;;5070908;28;20486;-64
2022/09/01 14:11:47;;;;;;;57.60;2.47;;;;;;;;;;5069211;28;20451;-64
2022/09/01 14:14:14;;;;;;;57.90;2.63;;;;;;;;;;5071229;28;20474;-64
2022/09/01 14:16:42;;;;;;;57.67;2.50;;;;;;;;;;5071504;28;20454;-64
2022/09/01 14:19:11;;;;;;;58.57;2.87;;;;;;;;;;5071189;28;20443;-64
2022/09/01 14:21:39;;;;;;;58.20;3.10;;;;;;;;;;5071196;28;20443;-64
2022/09/01 14:24:07;;;;;;;57.80;2.63;;;;;;;;;;5074753;28;20467;-66
2022/09/01 14:26:34;;;;;;;58.67;2.87;;;;;;;;;;5075623;28;20455;-66
2022/09/01 14:29:02;;;;;;;57.97;2.77;;;;;;;;;;5074839;28;20486;-66
2022/09/01 14:31:30;;;;;;;57.57;2.60;;;;;;;;;;5075434;28;20450;-66
2022/09/01 14:33:59;;;;;;;57.30;2.27;;;;;;;;;;5075113;28;20520;-66
2022/09/01 14:36:27;;;;;;;57.90;3.03;;;;;;;;;;5074964;28;20467;-66
2022/09/01 14:38:55;;;;;;;57.30;2.17;;;;;;;;;;5074953;28;20450;-66
2022/09/01 14:41:24;;;;;;;57.90;2.67;;;;;;;;;;5075251;28;20454;-66
2022/09/01 14:43:51;;;;;;;58.10;3.00;;;;;;;;;;5072219;28;20471;-66
2022/09/01 14:46:19;;;;;;;58.50;2.70;;;;;;;;;;5074952;28;20455;-66
2022/09/01 14:48:47;;;;;;;57.67;2.50;;;;;;;;;;5074216;28;20479;-66